createdAt,value
2023-01-01T00:00:50.305Z,50.57
2023-01-01T00:03:19.040Z,46.97
2023-01-01T00:05:47.463Z,45.73
2023-01-01T00:08:17.265Z,44.00
2023-01-01T00:10:45.628Z,39.23
2023-01-01T00:13:15.472Z,41.47
2023-01-01T00:15:43.828Z,42.17
2023-01-01T00:18:12.188Z,42.10
2023-01-01T00:20:40.541Z,43.50
2023-01-01T00:23:08.881Z,41.50
2023-01-01T00:25:40.846Z,44.93
2023-01-01T00:28:10.051Z,44.93
2023-01-01T00:30:42.420Z,45.30
2023-01-01T00:33:10.737Z,44.33
2023-01-01T00:35:39.057Z,46.20
2023-01-01T00:38:08.004Z,44.53
2023-01-01T00:40:36.386Z,42.63
2023-01-01T00:43:06.111Z,39.13
2023-01-01T00:45:34.483Z,37.17
2023-01-01T00:48:02.890Z,35.23
2023-01-01T00:50:31.285Z,35.77
2023-01-01T00:52:59.659Z,31.60
2023-01-01T00:55:28.082Z,31.80
2023-01-01T00:57:56.464Z,30.90
2023-01-01T01:00:26.302Z,29.40
2023-01-01T01:02:54.757Z,29.53
2023-01-01T01:05:23.232Z,28.23
2023-01-01T01:07:51.608Z,25.97
2023-01-01T01:10:21.558Z,24.30
2023-01-01T01:12:50.175Z,27.80
2023-01-01T01:15:18.776Z,25.90
2023-01-01T01:17:48.711Z,26.23
2023-01-01T01:20:17.337Z,22.10
2023-01-01T01:22:45.701Z,21.43
2023-01-01T01:25:14.076Z,20.70
2023-01-01T01:27:42.414Z,23.20
2023-01-01T01:30:11.726Z,25.13
2023-01-01T01:32:40.067Z,26.60
2023-01-01T01:35:10.482Z,27.60
2023-01-01T01:37:38.862Z,28.03
2023-01-01T01:40:09.244Z,30.03
2023-01-01T01:42:37.656Z,32.83
2023-01-01T01:45:09.167Z,43.87
2023-01-01T01:47:44.023Z,42.17
2023-01-01T01:50:18.461Z,38.47
2023-01-01T01:53:00.223Z,34.10
2023-01-01T01:55:31.943Z,38.70
2023-01-01T01:58:00.399Z,37.77
2023-01-01T02:00:29.397Z,36.87
2023-01-01T02:03:04.155Z,35.80
2023-01-01T02:05:35.426Z,39.90
2023-01-01T02:08:05.576Z,39.50
2023-01-01T02:10:34.285Z,38.80
2023-01-01T02:13:02.933Z,42.73
2023-01-01T02:15:40.532Z,44.00
2023-01-01T02:18:13.485Z,45.40
2023-01-01T02:20:51.605Z,47.77
2023-01-01T02:24:19.435Z,46.77
2023-01-01T02:26:58.079Z,48.07
2023-01-01T02:29:42.709Z,46.57
2023-01-01T02:32:15.476Z,47.70
2023-01-01T02:34:52.707Z,45.63
2023-01-01T02:37:23.316Z,43.87
2023-01-01T02:39:57.857Z,45.87
2023-01-01T02:42:30.234Z,45.30
2023-01-01T02:45:01.566Z,46.83
2023-01-01T02:47:29.892Z,45.00
2023-01-01T02:50:06.015Z,46.07
2023-01-01T02:53:08.555Z,45.10
2023-01-01T02:55:49.485Z,41.97
2023-01-01T02:58:43.784Z,44.47
2023-01-01T03:01:22.364Z,42.97
2023-01-01T03:04:02.982Z,41.73
2023-01-01T03:06:41.208Z,42.73
2023-01-01T03:09:22.310Z,41.67
2023-01-01T03:11:58.644Z,40.67
2023-01-01T03:14:36.173Z,41.20
2023-01-01T03:17:12.755Z,40.57
2023-01-01T03:19:43.392Z,42.47
2023-01-01T03:22:15.264Z,39.60
2023-01-01T03:24:50.558Z,40.90
2023-01-01T03:27:24.848Z,38.73
2023-01-01T03:29:56.758Z,40.50
2023-01-01T03:32:47.570Z,39.07
2023-01-01T03:35:18.067Z,37.53
2023-01-01T03:37:50.430Z,36.67
2023-01-01T03:40:20.513Z,32.30
2023-01-01T03:42:53.628Z,33.00
2023-01-01T03:45:27.092Z,30.77
2023-01-01T03:47:57.467Z,32.20
2023-01-01T03:50:37.060Z,30.50
2023-01-01T03:53:11.984Z,30.60
2023-01-01T03:55:46.608Z,31.23
2023-01-01T03:58:23.894Z,29.77
2023-01-01T04:00:57.488Z,27.37
2023-01-01T04:03:29.899Z,26.60
2023-01-01T04:05:58.416Z,23.00
2023-01-01T04:08:27.595Z,24.87
2023-01-01T04:10:59.409Z,24.33
2023-01-01T04:13:27.905Z,21.90
2023-01-01T04:15:56.333Z,23.80
2023-01-01T04:18:26.183Z,22.83
2023-01-01T04:20:54.562Z,20.77
2023-01-01T04:23:23.074Z,20.83
2023-01-01T04:25:51.491Z,20.30
2023-01-01T04:28:20.387Z,19.90
2023-01-01T04:30:48.916Z,19.40
2023-01-01T04:33:17.348Z,19.00
2023-01-01T04:35:47.190Z,17.10
2023-01-01T04:38:15.952Z,17.20
2023-01-01T04:40:44.675Z,16.70
2023-01-01T04:43:13.045Z,18.03
2023-01-01T04:45:41.499Z,17.80
2023-01-01T04:48:09.915Z,16.90
2023-01-01T04:50:38.288Z,16.73
2023-01-01T04:53:08.004Z,16.10
2023-01-01T04:55:36.403Z,15.70
2023-01-01T04:58:04.749Z,16.43
2023-01-01T05:00:33.196Z,16.93
2023-01-01T05:03:01.629Z,15.83
2023-01-01T05:05:30.008Z,15.37
2023-01-01T05:07:58.325Z,15.70
2023-01-01T05:10:28.029Z,15.27
2023-01-01T05:12:56.421Z,17.20
2023-01-01T05:15:24.965Z,16.47
2023-01-01T05:17:53.332Z,15.90
2023-01-01T05:20:21.727Z,16.13
2023-01-01T05:22:50.141Z,17.43
2023-01-01T05:25:18.834Z,15.20
2023-01-01T05:27:48.559Z,14.67
2023-01-01T05:30:17.096Z,13.77
2023-01-01T05:32:45.459Z,13.57
2023-01-01T05:35:13.767Z,14.13
2023-01-01T05:37:42.154Z,14.10
2023-01-01T05:40:12.587Z,14.47
2023-01-01T05:42:41.094Z,12.73
2023-01-01T05:45:12.340Z,14.20
2023-01-01T05:47:40.774Z,12.43
2023-01-01T05:52:37.923Z,14.07
2023-01-01T05:55:07.385Z,14.30
2023-01-01T05:57:35.755Z,12.60
2023-01-01T06:00:04.729Z,14.63
2023-01-01T06:02:36.386Z,13.20
2023-01-01T06:05:07.436Z,12.33
2023-01-01T06:07:35.756Z,11.40
2023-01-01T06:10:04.925Z,12.30
2023-01-01T06:12:33.415Z,12.67
2023-01-01T06:15:01.841Z,13.40
2023-01-01T06:17:30.222Z,11.53
2023-01-01T06:20:00.732Z,13.53
2023-01-01T06:22:29.154Z,11.87
2023-01-01T06:24:57.502Z,12.73
2023-01-01T06:27:25.956Z,11.80
2023-01-01T06:29:56.183Z,11.77
2023-01-01T06:32:24.888Z,10.97
2023-01-01T06:34:53.312Z,11.87
2023-01-01T06:37:23.116Z,11.10
2023-01-01T06:39:51.486Z,9.97
2023-01-01T06:42:19.868Z,10.00
2023-01-01T06:44:48.226Z,9.20
2023-01-01T06:47:16.579Z,9.40
2023-01-01T06:49:44.941Z,9.40
2023-01-01T06:52:13.323Z,9.23
2023-01-01T06:54:43.112Z,9.67
2023-01-01T06:57:11.513Z,9.50
2023-01-01T06:59:39.829Z,8.87
2023-01-01T07:02:11.791Z,8.60
2023-01-01T07:04:40.328Z,10.17
2023-01-01T07:07:08.800Z,9.93
2023-01-01T07:09:37.172Z,9.30
2023-01-01T07:12:07.645Z,9.70
2023-01-01T07:14:36.034Z,9.30
2023-01-01T07:17:04.417Z,9.73
2023-01-01T07:19:32.825Z,11.60
2023-01-01T07:22:01.220Z,12.87
2023-01-01T07:24:29.658Z,10.97
2023-01-01T07:26:58.013Z,11.60
2023-01-01T07:29:27.843Z,9.50
2023-01-01T07:31:56.261Z,8.87
2023-01-01T07:34:24.608Z,8.83
2023-01-01T07:36:52.999Z,8.80
2023-01-01T07:39:21.332Z,7.47
2023-01-01T07:41:49.731Z,8.10
2023-01-01T07:44:18.111Z,7.20
2023-01-01T07:46:48.085Z,6.47
2023-01-01T07:49:16.508Z,6.47
2023-01-01T07:51:44.828Z,6.10
2023-01-01T07:54:13.220Z,6.20
2023-01-01T07:56:41.555Z,6.13
2023-01-01T07:59:09.894Z,5.97
2023-01-01T08:01:39.311Z,6.23
2023-01-01T08:04:10.156Z,5.83
2023-01-01T08:06:39.471Z,5.87
2023-01-01T08:09:08.337Z,5.47
2023-01-01T08:11:36.783Z,5.50
2023-01-01T08:14:05.201Z,5.43
2023-01-01T08:16:33.712Z,5.83
2023-01-01T08:19:02.190Z,5.77
2023-01-01T08:21:32.374Z,5.00
2023-01-01T08:24:00.747Z,5.57
2023-01-01T08:26:32.073Z,5.30
2023-01-01T08:29:02.758Z,5.47
2023-01-01T08:31:31.421Z,5.60
2023-01-01T08:34:00.018Z,6.07
2023-01-01T08:36:28.649Z,5.73
2023-01-01T08:38:58.538Z,4.70
2023-01-01T08:41:26.933Z,5.00
2023-01-01T08:43:55.373Z,4.43
2023-01-01T08:46:23.849Z,5.43
2023-01-01T08:48:52.277Z,5.73
2023-01-01T08:51:20.776Z,5.60
2023-01-01T08:53:51.487Z,5.80
2023-01-01T08:56:21.745Z,5.00
2023-01-01T08:58:50.550Z,5.23
2023-01-01T09:01:21.588Z,5.00
2023-01-01T09:03:50.512Z,4.57
2023-01-01T09:06:19.058Z,4.40
2023-01-01T09:08:47.579Z,4.00
2023-01-01T09:11:25.832Z,4.80
2023-01-01T09:13:55.469Z,4.80
2023-01-01T09:16:24.402Z,4.37
2023-01-01T09:18:52.837Z,3.67
2023-01-01T09:21:21.225Z,4.87
2023-01-01T09:23:49.632Z,3.50
2023-01-01T09:26:18.293Z,4.97
2023-01-01T09:28:48.085Z,3.70
2023-01-01T09:31:16.502Z,4.17
2023-01-01T09:33:44.941Z,5.10
2023-01-01T09:36:15.763Z,4.67
2023-01-01T09:38:44.163Z,3.90
2023-01-01T09:41:27.062Z,4.53
2023-01-01T09:44:05.009Z,4.30
2023-01-01T09:46:34.260Z,3.93
2023-01-01T09:49:08.150Z,4.47
2023-01-01T09:51:45.198Z,4.80
2023-01-01T09:54:28.648Z,3.97
2023-01-01T09:57:00.329Z,5.73
2023-01-01T09:59:30.715Z,4.73
2023-01-01T10:02:07.686Z,4.90
2023-01-01T10:04:49.806Z,3.43
2023-01-01T10:07:30.109Z,4.27
2023-01-01T10:10:05.853Z,3.60
2023-01-01T10:12:43.493Z,3.43
2023-01-01T10:15:18.417Z,3.50
2023-01-01T10:17:50.438Z,3.50
2023-01-01T10:20:25.309Z,3.63
2023-01-01T10:22:57.332Z,3.37
2023-01-01T10:25:29.357Z,3.17
2023-01-01T10:28:01.884Z,2.50
2023-01-01T10:30:32.250Z,3.40
2023-01-01T10:33:01.321Z,3.07
2023-01-01T10:35:36.681Z,2.70
2023-01-01T10:38:06.895Z,3.50
2023-01-01T10:40:35.422Z,3.03
2023-01-01T10:43:04.661Z,2.53
2023-01-01T10:45:36.940Z,3.03
2023-01-01T10:48:14.722Z,4.50
2023-01-01T10:50:46.613Z,2.80
2023-01-01T10:53:29.404Z,2.57
2023-01-01T10:56:05.270Z,2.70
2023-01-01T10:58:41.097Z,2.70
2023-01-01T11:01:14.287Z,3.20
2023-01-01T11:03:58.115Z,2.87
2023-01-01T11:06:28.738Z,3.10
2023-01-01T11:09:03.197Z,3.10
2023-01-01T11:11:37.813Z,2.70
2023-01-01T11:14:08.670Z,2.97
2023-01-01T11:16:40.875Z,2.97
2023-01-01T11:19:10.237Z,3.00
2023-01-01T11:21:38.578Z,2.27
2023-01-01T11:24:29.367Z,2.40
2023-01-01T11:27:18.522Z,3.17
2023-01-01T11:29:46.982Z,2.80
2023-01-01T11:32:22.298Z,3.33
2023-01-01T11:34:59.050Z,2.93
2023-01-01T11:37:33.156Z,3.20
2023-01-01T11:40:03.858Z,2.70
2023-01-01T11:42:35.554Z,3.80
2023-01-01T11:45:10.369Z,2.97
2023-01-01T11:47:43.582Z,3.50
2023-01-01T11:50:26.613Z,2.97
2023-01-01T11:52:58.311Z,2.60
2023-01-01T11:55:38.984Z,2.43
2023-01-01T11:58:19.863Z,3.00
2023-01-01T12:00:52.352Z,2.23
2023-01-01T12:03:32.922Z,2.57
2023-01-01T12:06:09.908Z,3.10
2023-01-01T12:08:41.484Z,2.80
2023-01-01T12:11:18.616Z,3.00
2023-01-01T12:13:52.396Z,3.23
2023-01-01T12:16:29.354Z,3.00
2023-01-01T12:19:06.037Z,2.80
2023-01-01T12:21:37.222Z,3.03
2023-01-01T12:24:11.502Z,3.60
2023-01-01T12:26:57.409Z,3.23
2023-01-01T12:30:12.635Z,3.00
2023-01-01T12:33:15.177Z,3.20
2023-01-01T12:36:04.978Z,4.23
2023-01-01T12:39:40.022Z,4.40
2023-01-01T12:42:18.291Z,3.33
2023-01-01T12:44:58.776Z,2.70
2023-01-01T12:47:41.567Z,3.20
2023-01-01T12:50:21.054Z,3.57
2023-01-01T12:53:05.047Z,3.17
2023-01-01T12:56:22.483Z,3.00
2023-01-01T12:58:57.092Z,3.40
2023-01-01T13:01:34.000Z,3.00
2023-01-01T13:04:04.874Z,3.00
2023-01-01T13:06:39.620Z,2.67
2023-01-01T13:09:15.423Z,2.87
2023-01-01T13:11:47.659Z,3.47
2023-01-01T13:14:16.483Z,3.03
2023-01-01T13:16:50.451Z,3.83
2023-01-01T13:19:31.737Z,4.17
2023-01-01T13:22:00.607Z,3.07
2023-01-01T13:24:30.382Z,3.07
2023-01-01T13:26:58.759Z,2.93
2023-01-01T13:29:44.700Z,3.20
2023-01-01T13:32:15.307Z,4.80
2023-01-01T13:35:18.577Z,3.17
2023-01-01T13:37:48.943Z,2.83
2023-01-01T13:40:56.826Z,3.03
2023-01-01T13:43:32.723Z,2.70
2023-01-01T13:46:12.991Z,3.20
2023-01-01T13:49:07.492Z,2.70
2023-01-01T13:52:05.846Z,2.70
2023-01-01T13:55:11.189Z,4.10
2023-01-01T13:58:25.212Z,3.13
2023-01-01T14:01:14.717Z,3.43
2023-01-01T14:03:47.341Z,3.40
2023-01-01T14:06:26.276Z,3.23
2023-01-01T14:09:04.537Z,3.40
2023-01-01T14:11:32.886Z,3.93
2023-01-01T14:14:02.720Z,3.03
2023-01-01T14:16:31.461Z,4.10
2023-01-01T14:19:03.487Z,3.67
2023-01-01T14:21:35.146Z,4.20
2023-01-01T14:24:06.921Z,4.53
2023-01-01T14:26:39.101Z,3.60
2023-01-01T14:29:14.729Z,4.30
2023-01-01T14:31:46.211Z,4.40
2023-01-01T14:34:16.901Z,4.00
2023-01-01T14:36:53.235Z,3.00
2023-01-01T14:39:28.141Z,4.23
2023-01-01T14:42:01.787Z,4.97
2023-01-01T14:44:37.190Z,5.30
2023-01-01T14:47:18.100Z,4.47
2023-01-01T14:49:48.271Z,5.20
2023-01-01T14:52:24.642Z,5.13
2023-01-01T14:54:54.719Z,5.83
2023-01-01T14:57:29.287Z,5.20
2023-01-01T14:59:59.241Z,4.40
2023-01-01T15:02:30.529Z,3.70
2023-01-01T15:05:00.039Z,3.33
2023-01-01T15:07:31.408Z,4.60
2023-01-01T15:10:03.572Z,3.93
2023-01-01T15:12:37.358Z,4.33
2023-01-01T15:15:38.311Z,4.60
2023-01-01T15:18:07.169Z,4.70
2023-01-01T15:20:37.203Z,4.60
2023-01-01T15:23:09.967Z,3.10
2023-01-01T15:25:43.340Z,4.33
2023-01-01T15:28:21.429Z,3.20
2023-01-01T15:30:56.518Z,4.00
2023-01-01T15:33:25.629Z,3.40
2023-01-01T15:36:00.863Z,3.77
2023-01-01T15:38:34.325Z,4.47
2023-01-01T15:41:26.139Z,4.93
2023-01-01T15:44:09.715Z,4.13
2023-01-01T15:46:47.349Z,5.10
2023-01-01T15:49:26.225Z,3.50
2023-01-01T15:51:57.532Z,3.80
2023-01-01T15:54:27.493Z,4.03
2023-01-01T15:56:56.309Z,3.67
2023-01-01T15:59:30.988Z,4.50
2023-01-01T16:02:15.261Z,4.50
2023-01-01T16:04:47.893Z,4.70
2023-01-01T16:07:21.079Z,3.93
2023-01-01T16:09:56.782Z,3.93
2023-01-01T16:12:29.948Z,4.40
2023-01-01T16:14:58.302Z,4.20
2023-01-01T16:17:27.990Z,4.33
2023-01-01T16:19:56.431Z,3.17
2023-01-01T16:22:24.789Z,4.13
2023-01-01T16:24:54.913Z,3.67
2023-01-01T16:27:23.316Z,3.37
2023-01-01T16:29:54.899Z,4.10
2023-01-01T16:32:23.508Z,4.40
2023-01-01T16:34:53.248Z,4.60
2023-01-01T16:37:22.915Z,4.50
2023-01-01T16:39:51.492Z,3.40
2023-01-01T16:42:20.062Z,4.90
2023-01-01T16:44:48.386Z,5.03
2023-01-01T16:47:16.906Z,35.73
2023-01-01T16:49:45.498Z,5.83
2023-01-01T16:52:15.263Z,5.43
2023-01-01T16:54:43.818Z,4.00
2023-01-01T16:57:12.363Z,6.87
2023-01-01T16:59:40.856Z,4.83
2023-01-01T17:02:12.103Z,5.43
2023-01-01T17:04:40.558Z,5.23
2023-01-01T17:07:08.959Z,5.10
2023-01-01T17:09:38.674Z,5.10
2023-01-01T17:12:07.588Z,5.90
2023-01-01T17:14:35.918Z,5.63
2023-01-01T17:17:04.290Z,5.97
2023-01-01T17:19:32.674Z,4.97
2023-01-01T17:22:01.208Z,4.60
2023-01-01T17:24:29.506Z,5.27
2023-01-01T17:26:59.640Z,4.40
2023-01-01T17:29:28.218Z,4.70
2023-01-01T17:31:56.638Z,4.90
2023-01-01T17:34:25.122Z,5.47
2023-01-01T17:36:53.496Z,4.83
2023-01-01T17:39:21.823Z,5.70
2023-01-01T17:41:50.534Z,6.37
2023-01-01T17:44:20.288Z,10.10
2023-01-01T17:46:48.785Z,5.80
2023-01-01T17:49:17.140Z,6.10
2023-01-01T17:51:45.552Z,6.40
2023-01-01T17:54:14.289Z,6.50
2023-01-01T17:56:42.728Z,6.07
2023-01-01T17:59:11.207Z,5.63
2023-01-01T18:01:42.246Z,5.40
2023-01-01T18:04:11.546Z,6.23
2023-01-01T18:06:43.693Z,5.80
2023-01-01T18:09:16.319Z,6.27
2023-01-01T18:11:45.353Z,5.90
2023-01-01T18:14:17.361Z,6.23
2023-01-01T18:16:50.800Z,5.10
2023-01-01T18:19:19.890Z,6.17
2023-01-01T18:21:48.324Z,5.70
2023-01-01T18:24:17.589Z,5.33
2023-01-01T18:26:46.037Z,6.03
2023-01-01T18:29:14.449Z,6.40
2023-01-01T18:31:42.986Z,7.60
2023-01-01T18:34:12.981Z,7.07
2023-01-01T18:36:42.379Z,6.43
2023-01-01T18:39:17.165Z,6.70
2023-01-01T18:42:35.476Z,6.10
2023-01-01T18:45:16.585Z,7.47
2023-01-01T18:47:46.407Z,6.17
2023-01-01T18:50:26.608Z,5.00
2023-01-01T18:53:07.497Z,5.53
2023-01-01T18:55:35.934Z,6.13
2023-01-01T18:58:17.587Z,4.70
2023-01-01T19:00:49.113Z,4.90
2023-01-01T19:03:22.886Z,5.13
2023-01-01T19:05:52.713Z,5.20
2023-01-01T19:08:22.518Z,4.80
2023-01-01T19:10:53.785Z,4.63
2023-01-01T19:13:25.594Z,6.90
2023-01-01T19:15:59.210Z,6.67
2023-01-01T19:18:31.860Z,7.80
2023-01-01T19:21:14.602Z,7.60
2023-01-01T19:23:50.570Z,5.77
2023-01-01T19:26:26.190Z,6.73
2023-01-01T19:28:56.643Z,6.00
2023-01-01T19:31:25.353Z,5.40
2023-01-01T19:33:53.758Z,5.87
2023-01-01T19:36:23.494Z,5.97
2023-01-01T19:38:51.832Z,5.00
2023-01-01T19:41:20.254Z,6.50
2023-01-01T19:43:48.649Z,5.73
2023-01-01T19:46:17.160Z,5.80
2023-01-01T19:48:45.654Z,5.40
2023-01-01T19:51:14.078Z,6.23
2023-01-01T19:53:43.792Z,7.20
2023-01-01T19:56:12.524Z,7.57
2023-01-01T19:58:40.949Z,7.37
2023-01-01T20:01:10.023Z,6.77
2023-01-01T20:03:56.477Z,7.17
2023-01-01T20:06:28.768Z,6.80
2023-01-01T20:08:58.562Z,7.20
2023-01-01T20:11:29.690Z,7.70
2023-01-01T20:13:58.434Z,7.87
2023-01-01T20:16:26.842Z,7.47
2023-01-01T20:18:55.318Z,7.63
2023-01-01T20:21:41.953Z,7.97
2023-01-01T20:24:12.135Z,9.50
2023-01-01T20:26:40.505Z,9.80
2023-01-01T20:29:20.062Z,9.00
2023-01-01T20:31:49.774Z,9.37
2023-01-01T20:34:18.272Z,9.77
2023-01-01T20:37:05.537Z,9.70
2023-01-01T20:39:35.917Z,8.50
2023-01-01T20:42:04.694Z,10.17
2023-01-01T20:44:33.454Z,8.90
2023-01-01T20:47:01.835Z,9.60
2023-01-01T20:49:30.254Z,9.67
2023-01-01T20:51:58.695Z,9.83
2023-01-01T20:54:27.122Z,9.77
2023-01-01T20:56:56.948Z,9.07
2023-01-01T20:59:35.463Z,9.80
2023-01-01T21:02:06.037Z,9.73
2023-01-01T21:04:38.818Z,9.70
2023-01-01T21:07:09.403Z,10.33
2023-01-01T21:09:38.472Z,9.90
2023-01-01T21:12:09.652Z,9.27
2023-01-01T21:14:38.242Z,9.70
2023-01-01T21:17:21.349Z,9.40
2023-01-01T21:19:50.375Z,9.60
2023-01-01T21:22:18.980Z,10.40
2023-01-01T21:24:53.642Z,10.20
2023-01-01T21:27:30.593Z,8.20
2023-01-01T21:29:59.915Z,9.90
2023-01-01T21:32:34.908Z,7.30
2023-01-01T21:35:03.366Z,8.63
2023-01-01T21:37:48.330Z,9.07
2023-01-01T21:40:42.001Z,9.30
2023-01-01T21:43:31.061Z,8.57
2023-01-01T21:46:15.595Z,8.00
2023-01-01T21:48:55.486Z,7.73
2023-01-01T21:51:27.036Z,9.03
2023-01-01T21:54:16.339Z,8.70
2023-01-01T21:56:53.533Z,11.70
2023-01-01T21:59:35.235Z,10.43
2023-01-01T22:02:32.429Z,8.93
2023-01-01T22:05:05.513Z,7.93
2023-01-01T22:10:35.760Z,8.97
2023-01-01T22:13:05.773Z,9.13
2023-01-01T22:15:42.840Z,7.20
2023-01-01T22:18:28.525Z,7.80
2023-01-01T22:20:57.988Z,8.60
2023-01-01T22:23:36.511Z,8.10
2023-01-01T22:26:15.398Z,7.40
2023-01-01T22:28:45.644Z,9.83
2023-01-01T22:31:22.821Z,10.90
2023-01-01T22:33:53.937Z,11.10
2023-01-01T22:36:26.301Z,8.90
2023-01-01T22:38:56.698Z,9.23
2023-01-01T22:41:25.036Z,7.30
2023-01-01T22:43:58.211Z,9.07
2023-01-01T22:46:33.893Z,9.20
2023-01-01T22:49:14.451Z,7.90
2023-01-01T22:51:45.036Z,8.57
2023-01-01T22:54:13.504Z,8.90
2023-01-01T22:56:41.954Z,8.20
2023-01-01T22:59:10.324Z,9.63
2023-01-01T23:01:40.249Z,9.83
2023-01-01T23:04:08.728Z,8.90
2023-01-01T23:06:37.413Z,9.13
2023-01-01T23:09:06.489Z,8.50
2023-01-01T23:11:34.880Z,7.67
2023-01-01T23:14:21.090Z,9.13
2023-01-01T23:16:50.841Z,8.00
2023-01-01T23:19:19.977Z,7.03
2023-01-01T23:21:49.763Z,8.77
2023-01-01T23:24:21.540Z,8.10
2023-01-01T23:26:50.746Z,7.57
2023-01-01T23:29:22.026Z,8.07
2023-01-01T23:31:52.321Z,7.97
2023-01-01T23:34:20.889Z,7.67
2023-01-01T23:36:51.005Z,8.13
2023-01-01T23:39:19.466Z,8.90
2023-01-01T23:41:49.301Z,8.57
2023-01-01T23:44:17.663Z,8.33
2023-01-01T23:46:46.228Z,7.57
2023-01-01T23:49:16.494Z,8.00
2023-01-01T23:51:45.135Z,8.67
2023-01-01T23:54:13.508Z,7.27
2023-01-01T23:56:41.834Z,8.63
2023-01-01T23:59:11.908Z,7.70
